sensor_id;sensor_type;location;lat;lon;timestamp;P1;durP1;ratioP1;P2;durP2;ratioP2
12916;SDS011;6526;54.312;13.092;2024-03-17T00:01:55;17.30;;;4.77;;
12916;SDS011;6526;54.312;13.092;2024-03-17T00:04:21;6.30;;;2.57;;
12916;SDS011;6526;54.312;13.092;2024-03-17T00:06:47;7.30;;;3.17;;
12916;SDS011;6526;54.312;13.092;2024-03-17T00:09:13;4.30;;;1.97;;
12916;SDS011;6526;54.312;13.092;2024-03-17T00:11:41;1.50;;;1.40;;
12916;SDS011;6526;54.312;13.092;2024-03-17T00:14:07;3.60;;;1.83;;
12916;SDS011;6526;54.312;13.092;2024-03-17T00:16:33;3.10;;;1.80;;
12916;SDS011;6526;54.312;13.092;2024-03-17T00:18:59;6.67;;;3.00;;
12916;SDS011;6526;54.312;13.092;2024-03-17T00:21:25;4.57;;;1.70;;
12916;SDS011;6526;54.312;13.092;2024-03-17T00:23:51;7.57;;;2.67;;
12916;SDS011;6526;54.312;13.092;2024-03-17T00:26:17;3.10;;;1.37;;
12916;SDS011;6526;54.312;13.092;2024-03-17T00:28:44;1.50;;;0.40;;
12916;SDS011;6526;54.312;13.092;2024-03-17T00:31:16;2.43;;;1.23;;
12916;SDS011;6526;54.312;13.092;2024-03-17T00:33:42;5.27;;;1.53;;
12916;SDS011;6526;54.312;13.092;2024-03-17T00:36:09;0.17;;;0.13;;
12916;SDS011;6526;54.312;13.092;2024-03-17T00:38:35;6.80;;;1.53;;
12916;SDS011;6526;54.312;13.092;2024-03-17T00:41:02;1.87;;;1.37;;
12916;SDS011;6526;54.312;13.092;2024-03-17T00:43:29;4.03;;;1.03;;
12916;SDS011;6526;54.312;13.092;2024-03-17T00:45:55;2.43;;;0.87;;
12916;SDS011;6526;54.312;13.092;2024-03-17T00:48:21;2.03;;;0.80;;
12916;SDS011;6526;54.312;13.092;2024-03-17T00:50:54;8.60;;;2.33;;
12916;SDS011;6526;54.312;13.092;2024-03-17T00:53:20;8.07;;;2.57;;
12916;SDS011;6526;54.312;13.092;2024-03-17T00:55:53;0.47;;;0.47;;
12916;SDS011;6526;54.312;13.092;2024-03-17T00:58:22;7.80;;;2.80;;
12916;SDS011;6526;54.312;13.092;2024-03-17T01:00:48;0.70;;;0.70;;
12916;SDS011;6526;54.312;13.092;2024-03-17T01:03:15;2.07;;;0.90;;
12916;SDS011;6526;54.312;13.092;2024-03-17T01:05:42;0.97;;;0.70;;
12916;SDS011;6526;54.312;13.092;2024-03-17T01:08:10;1.50;;;0.80;;
12916;SDS011;6526;54.312;13.092;2024-03-17T01:10:39;1.20;;;1.07;;
12916;SDS011;6526;54.312;13.092;2024-03-17T01:13:06;1.07;;;0.73;;
12916;SDS011;6526;54.312;13.092;2024-03-17T01:15:34;3.60;;;1.83;;
12916;SDS011;6526;54.312;13.092;2024-03-17T01:18:04;5.20;;;1.83;;
12916;SDS011;6526;54.312;13.092;2024-03-17T01:20:37;2.07;;;1.83;;
12916;SDS011;6526;54.312;13.092;2024-03-17T01:23:04;4.57;;;2.47;;
12916;SDS011;6526;54.312;13.092;2024-03-17T01:25:30;2.43;;;1.67;;
12916;SDS011;6526;54.312;13.092;2024-03-17T01:28:01;8.73;;;4.43;;
12916;SDS011;6526;54.312;13.092;2024-03-17T01:30:27;16.83;;;3.63;;
12916;SDS011;6526;54.312;13.092;2024-03-17T01:32:53;18.60;;;4.50;;
12916;SDS011;6526;54.312;13.092;2024-03-17T01:35:19;5.60;;;2.40;;
12916;SDS011;6526;54.312;13.092;2024-03-17T01:37:45;9.53;;;2.20;;
12916;SDS011;6526;54.312;13.092;2024-03-17T01:40:11;1.50;;;0.40;;
12916;SDS011;6526;54.312;13.092;2024-03-17T01:42:40;0.40;;;0.40;;
12916;SDS011;6526;54.312;13.092;2024-03-17T01:45:18;2.47;;;0.40;;
12916;SDS011;6526;54.312;13.092;2024-03-17T01:47:57;0.67;;;0.33;;
12916;SDS011;6526;54.312;13.092;2024-03-17T01:50:36;0.87;;;0.10;;
12916;SDS011;6526;54.312;13.092;2024-03-17T01:53:03;0.47;;;0.47;;
12916;SDS011;6526;54.312;13.092;2024-03-17T01:55:34;2.90;;;0.77;;
12916;SDS011;6526;54.312;13.092;2024-03-17T01:58:02;3.10;;;0.67;;
12916;SDS011;6526;54.312;13.092;2024-03-17T02:00:29;2.53;;;0.77;;
12916;SDS011;6526;54.312;13.092;2024-03-17T02:02:56;1.60;;;0.20;;
12916;SDS011;6526;54.312;13.092;2024-03-17T02:05:22;0.20;;;0.17;;
12916;SDS011;6526;54.312;13.092;2024-03-17T02:07:48;0.83;;;0.30;;
12916;SDS011;6526;54.312;13.092;2024-03-17T02:10:15;2.87;;;0.63;;
12916;SDS011;6526;54.312;13.092;2024-03-17T02:12:41;0.93;;;0.43;;
12916;SDS011;6526;54.312;13.092;2024-03-17T02:15:07;3.10;;;0.40;;
12916;SDS011;6526;54.312;13.092;2024-03-17T02:17:33;0.33;;;0.33;;
12916;SDS011;6526;54.312;13.092;2024-03-17T02:19:59;0.50;;;0.43;;
12916;SDS011;6526;54.312;13.092;2024-03-17T02:22:26;1.40;;;0.43;;
12916;SDS011;6526;54.312;13.092;2024-03-17T02:24:55;1.47;;;0.87;;
12916;SDS011;6526;54.312;13.092;2024-03-17T02:27:21;1.27;;;0.30;;
12916;SDS011;6526;54.312;13.092;2024-03-17T02:29:47;0.13;;;0.13;;
12916;SDS011;6526;54.312;13.092;2024-03-17T02:32:13;1.00;;;0.17;;
12916;SDS011;6526;54.312;13.092;2024-03-17T02:34:39;0.00;;;0.00;;
12916;SDS011;6526;54.312;13.092;2024-03-17T02:37:06;1.70;;;0.60;;
12916;SDS011;6526;54.312;13.092;2024-03-17T02:39:32;4.13;;;0.30;;
12916;SDS011;6526;54.312;13.092;2024-03-17T02:42:09;0.17;;;0.17;;
12916;SDS011;6526;54.312;13.092;2024-03-17T02:44:36;5.40;;;1.10;;
12916;SDS011;6526;54.312;13.092;2024-03-17T02:47:04;2.00;;;0.60;;
12916;SDS011;6526;54.312;13.092;2024-03-17T02:49:31;0.20;;;0.20;;
12916;SDS011;6526;54.312;13.092;2024-03-17T02:52:08;5.37;;;0.63;;
12916;SDS011;6526;54.312;13.092;2024-03-17T02:54:36;1.70;;;0.87;;
12916;SDS011;6526;54.312;13.092;2024-03-17T02:57:03;0.10;;;0.10;;
12916;SDS011;6526;54.312;13.092;2024-03-17T02:59:31;1.53;;;0.40;;
12916;SDS011;6526;54.312;13.092;2024-03-17T03:01:58;2.40;;;0.80;;
12916;SDS011;6526;54.312;13.092;2024-03-17T03:04:24;3.97;;;1.17;;
12916;SDS011;6526;54.312;13.092;2024-03-17T03:06:51;1.50;;;0.40;;
12916;SDS011;6526;54.312;13.092;2024-03-17T03:09:17;0.77;;;0.40;;
12916;SDS011;6526;54.312;13.092;2024-03-17T03:11:55;1.87;;;0.80;;
12916;SDS011;6526;54.312;13.092;2024-03-17T03:14:27;0.50;;;0.47;;
12916;SDS011;6526;54.312;13.092;2024-03-17T03:16:53;1.90;;;0.77;;
12916;SDS011;6526;54.312;13.092;2024-03-17T03:19:20;2.17;;;0.77;;
12916;SDS011;6526;54.312;13.092;2024-03-17T03:21:46;0.30;;;0.30;;
12916;SDS011;6526;54.312;13.092;2024-03-17T03:24:15;1.60;;;0.20;;
12916;SDS011;6526;54.312;13.092;2024-03-17T03:26:42;0.60;;;0.60;;
12916;SDS011;6526;54.312;13.092;2024-03-17T03:29:08;1.97;;;0.63;;
12916;SDS011;6526;54.312;13.092;2024-03-17T03:31:39;0.93;;;0.40;;
12916;SDS011;6526;54.312;13.092;2024-03-17T03:34:06;0.10;;;0.10;;
12916;SDS011;6526;54.312;13.092;2024-03-17T03:36:35;0.07;;;0.07;;
12916;SDS011;6526;54.312;13.092;2024-03-17T03:39:03;1.37;;;0.50;;
12916;SDS011;6526;54.312;13.092;2024-03-17T03:41:30;0.57;;;0.20;;
12916;SDS011;6526;54.312;13.092;2024-03-17T03:43:57;0.30;;;0.30;;
12916;SDS011;6526;54.312;13.092;2024-03-17T03:46:24;0.10;;;0.10;;
12916;SDS011;6526;54.312;13.092;2024-03-17T03:48:50;0.30;;;0.30;;
12916;SDS011;6526;54.312;13.092;2024-03-17T03:51:16;0.53;;;0.33;;
12916;SDS011;6526;54.312;13.092;2024-03-17T03:53:42;0.10;;;0.10;;
12916;SDS011;6526;54.312;13.092;2024-03-17T03:56:09;0.13;;;0.13;;
12916;SDS011;6526;54.312;13.092;2024-03-17T03:58:36;1.00;;;0.40;;
12916;SDS011;6526;54.312;13.092;2024-03-17T04:01:04;0.40;;;0.40;;
12916;SDS011;6526;54.312;13.092;2024-03-17T04:03:30;0.00;;;0.00;;
12916;SDS011;6526;54.312;13.092;2024-03-17T04:06:07;0.30;;;0.30;;
12916;SDS011;6526;54.312;13.092;2024-03-17T04:08:36;1.43;;;0.57;;
12916;SDS011;6526;54.312;13.092;2024-03-17T04:11:04;0.40;;;0.20;;
12916;SDS011;6526;54.312;13.092;2024-03-17T04:13:30;0.67;;;0.40;;
12916;SDS011;6526;54.312;13.092;2024-03-17T04:15:58;0.10;;;0.10;;
12916;SDS011;6526;54.312;13.092;2024-03-17T04:18:27;0.13;;;0.10;;
12916;SDS011;6526;54.312;13.092;2024-03-17T04:20:58;0.40;;;0.40;;
12916;SDS011;6526;54.312;13.092;2024-03-17T04:23:28;0.00;;;0.00;;
12916;SDS011;6526;54.312;13.092;2024-03-17T04:25:57;0.63;;;0.30;;
12916;SDS011;6526;54.312;13.092;2024-03-17T04:28:23;0.10;;;0.10;;
12916;SDS011;6526;54.312;13.092;2024-03-17T04:30:49;0.03;;;0.00;;
12916;SDS011;6526;54.312;13.092;2024-03-17T04:33:15;0.10;;;0.10;;
12916;SDS011;6526;54.312;13.092;2024-03-17T04:35:42;0.70;;;0.30;;
12916;SDS011;6526;54.312;13.092;2024-03-17T04:38:08;1.77;;;0.40;;
12916;SDS011;6526;54.312;13.092;2024-03-17T04:40:34;0.00;;;0.00;;
12916;SDS011;6526;54.312;13.092;2024-03-17T04:43:07;3.10;;;0.47;;
12916;SDS011;6526;54.312;13.092;2024-03-17T04:45:33;0.10;;;0.10;;
12916;SDS011;6526;54.312;13.092;2024-03-17T04:47:59;0.87;;;0.30;;
12916;SDS011;6526;54.312;13.092;2024-03-17T04:50:26;0.10;;;0.10;;
12916;SDS011;6526;54.312;13.092;2024-03-17T04:52:56;0.33;;;0.10;;
12916;SDS011;6526;54.312;13.092;2024-03-17T04:55:26;0.20;;;0.20;;
12916;SDS011;6526;54.312;13.092;2024-03-17T04:57:52;0.80;;;0.43;;
12916;SDS011;6526;54.312;13.092;2024-03-17T05:00:18;0.30;;;0.30;;
12916;SDS011;6526;54.312;13.092;2024-03-17T05:02:46;0.10;;;0.10;;
12916;SDS011;6526;54.312;13.092;2024-03-17T05:05:12;0.73;;;0.30;;
12916;SDS011;6526;54.312;13.092;2024-03-17T05:07:38;0.40;;;0.40;;
12916;SDS011;6526;54.312;13.092;2024-03-17T05:10:04;0.00;;;0.00;;
12916;SDS011;6526;54.312;13.092;2024-03-17T05:12:31;0.50;;;0.20;;
12916;SDS011;6526;54.312;13.092;2024-03-17T05:14:57;0.40;;;0.40;;
12916;SDS011;6526;54.312;13.092;2024-03-17T05:17:23;0.20;;;0.20;;
12916;SDS011;6526;54.312;13.092;2024-03-17T05:19:49;1.50;;;0.30;;
12916;SDS011;6526;54.312;13.092;2024-03-17T05:22:15;4.27;;;0.53;;
12916;SDS011;6526;54.312;13.092;2024-03-17T05:24:41;0.10;;;0.10;;
12916;SDS011;6526;54.312;13.092;2024-03-17T05:27:07;0.77;;;0.20;;
12916;SDS011;6526;54.312;13.092;2024-03-17T05:29:33;0.37;;;0.20;;
12916;SDS011;6526;54.312;13.092;2024-03-17T05:32:02;0.23;;;0.20;;
12916;SDS011;6526;54.312;13.092;2024-03-17T05:34:29;0.80;;;0.30;;
12916;SDS011;6526;54.312;13.092;2024-03-17T05:36:55;0.50;;;0.30;;
12916;SDS011;6526;54.312;13.092;2024-03-17T05:39:21;0.10;;;0.10;;
12916;SDS011;6526;54.312;13.092;2024-03-17T05:41:47;0.37;;;0.30;;
12916;SDS011;6526;54.312;13.092;2024-03-17T05:44:13;0.20;;;0.20;;
12916;SDS011;6526;54.312;13.092;2024-03-17T05:46:40;0.30;;;0.23;;
12916;SDS011;6526;54.312;13.092;2024-03-17T05:49:07;0.00;;;0.00;;
12916;SDS011;6526;54.312;13.092;2024-03-17T05:51:33;0.10;;;0.10;;
12916;SDS011;6526;54.312;13.092;2024-03-17T05:53:59;1.03;;;0.40;;
12916;SDS011;6526;54.312;13.092;2024-03-17T05:56:25;0.00;;;0.00;;
12916;SDS011;6526;54.312;13.092;2024-03-17T05:58:51;0.30;;;0.30;;
12916;SDS011;6526;54.312;13.092;2024-03-17T06:01:17;0.30;;;0.30;;
12916;SDS011;6526;54.312;13.092;2024-03-17T06:03:44;0.00;;;0.00;;
12916;SDS011;6526;54.312;13.092;2024-03-17T06:06:10;0.83;;;0.40;;
12916;SDS011;6526;54.312;13.092;2024-03-17T06:08:37;0.63;;;0.30;;
12916;SDS011;6526;54.312;13.092;2024-03-17T06:11:06;0.03;;;0.03;;
12916;SDS011;6526;54.312;13.092;2024-03-17T06:13:33;1.60;;;0.10;;
12916;SDS011;6526;54.312;13.092;2024-03-17T06:16:01;0.00;;;0.00;;
12916;SDS011;6526;54.312;13.092;2024-03-17T06:18:27;1.40;;;0.50;;
12916;SDS011;6526;54.312;13.092;2024-03-17T06:20:54;0.00;;;0.00;;
12916;SDS011;6526;54.312;13.092;2024-03-17T06:23:23;0.23;;;0.23;;
12916;SDS011;6526;54.312;13.092;2024-03-17T06:25:51;0.43;;;0.37;;
12916;SDS011;6526;54.312;13.092;2024-03-17T06:28:19;0.10;;;0.00;;
12916;SDS011;6526;54.312;13.092;2024-03-17T06:30:45;1.60;;;0.40;;
12916;SDS011;6526;54.312;13.092;2024-03-17T06:33:24;0.23;;;0.23;;
12916;SDS011;6526;54.312;13.092;2024-03-17T06:35:51;0.23;;;0.23;;
12916;SDS011;6526;54.312;13.092;2024-03-17T06:38:17;0.33;;;0.33;;
12916;SDS011;6526;54.312;13.092;2024-03-17T06:40:52;0.00;;;0.00;;
12916;SDS011;6526;54.312;13.092;2024-03-17T06:43:18;0.20;;;0.20;;
12916;SDS011;6526;54.312;13.092;2024-03-17T06:45:55;0.20;;;0.20;;
12916;SDS011;6526;54.312;13.092;2024-03-17T06:48:22;0.23;;;0.23;;
12916;SDS011;6526;54.312;13.092;2024-03-17T06:50:48;0.10;;;0.10;;
12916;SDS011;6526;54.312;13.092;2024-03-17T06:53:17;0.00;;;0.00;;
12916;SDS011;6526;54.312;13.092;2024-03-17T06:55:44;0.10;;;0.10;;
12916;SDS011;6526;54.312;13.092;2024-03-17T06:58:17;0.10;;;0.10;;
12916;SDS011;6526;54.312;13.092;2024-03-17T07:00:54;0.00;;;0.00;;
12916;SDS011;6526;54.312;13.092;2024-03-17T07:03:27;0.10;;;0.10;;
12916;SDS011;6526;54.312;13.092;2024-03-17T07:05:55;0.00;;;0.00;;
12916;SDS011;6526;54.312;13.092;2024-03-17T07:08:23;0.00;;;0.00;;
12916;SDS011;6526;54.312;13.092;2024-03-17T07:13:27;1.07;;;0.17;;
12916;SDS011;6526;54.312;13.092;2024-03-17T07:15:55;0.10;;;0.10;;
12916;SDS011;6526;54.312;13.092;2024-03-17T07:18:21;0.10;;;0.10;;
12916;SDS011;6526;54.312;13.092;2024-03-17T07:20:47;0.10;;;0.10;;
12916;SDS011;6526;54.312;13.092;2024-03-17T07:23:14;0.10;;;0.10;;
12916;SDS011;6526;54.312;13.092;2024-03-17T07:25:51;0.53;;;0.20;;
12916;SDS011;6526;54.312;13.092;2024-03-17T07:28:18;0.10;;;0.10;;
12916;SDS011;6526;54.312;13.092;2024-03-17T07:30:48;0.00;;;0.00;;
12916;SDS011;6526;54.312;13.092;2024-03-17T07:33:16;0.83;;;0.60;;
12916;SDS011;6526;54.312;13.092;2024-03-17T07:35:57;0.00;;;0.00;;
12916;SDS011;6526;54.312;13.092;2024-03-17T07:38:27;0.03;;;0.03;;
12916;SDS011;6526;54.312;13.092;2024-03-17T07:40:59;0.13;;;0.13;;
12916;SDS011;6526;54.312;13.092;2024-03-17T07:43:27;0.03;;;0.03;;
12916;SDS011;6526;54.312;13.092;2024-03-17T07:46:00;3.40;;;0.60;;
12916;SDS011;6526;54.312;13.092;2024-03-17T07:48:28;0.00;;;0.00;;
12916;SDS011;6526;54.312;13.092;2024-03-17T07:50:56;0.00;;;0.00;;
12916;SDS011;6526;54.312;13.092;2024-03-17T07:53:25;0.10;;;0.10;;
12916;SDS011;6526;54.312;13.092;2024-03-17T07:56:01;0.40;;;0.33;;
12916;SDS011;6526;54.312;13.092;2024-03-17T07:58:28;1.30;;;0.30;;
12916;SDS011;6526;54.312;13.092;2024-03-17T08:00:59;0.10;;;0.10;;
12916;SDS011;6526;54.312;13.092;2024-03-17T08:03:29;0.10;;;0.10;;
12916;SDS011;6526;54.312;13.092;2024-03-17T08:05:57;1.03;;;0.50;;
12916;SDS011;6526;54.312;13.092;2024-03-17T08:08:24;0.10;;;0.10;;
12916;SDS011;6526;54.312;13.092;2024-03-17T08:10:50;0.87;;;0.30;;
12916;SDS011;6526;54.312;13.092;2024-03-17T08:13:19;0.77;;;0.60;;
12916;SDS011;6526;54.312;13.092;2024-03-17T08:15:46;0.53;;;0.47;;
12916;SDS011;6526;54.312;13.092;2024-03-17T08:18:20;0.50;;;0.37;;
12916;SDS011;6526;54.312;13.092;2024-03-17T08:20:46;1.50;;;0.63;;
12916;SDS011;6526;54.312;13.092;2024-03-17T08:23:12;0.10;;;0.10;;
12916;SDS011;6526;54.312;13.092;2024-03-17T08:25:38;0.10;;;0.10;;
12916;SDS011;6526;54.312;13.092;2024-03-17T08:28:05;0.10;;;0.10;;
12916;SDS011;6526;54.312;13.092;2024-03-17T08:30:32;0.47;;;0.10;;
12916;SDS011;6526;54.312;13.092;2024-03-17T08:32:58;0.10;;;0.10;;
12916;SDS011;6526;54.312;13.092;2024-03-17T08:35:25;0.10;;;0.10;;
12916;SDS011;6526;54.312;13.092;2024-03-17T08:37:51;0.37;;;0.37;;
12916;SDS011;6526;54.312;13.092;2024-03-17T08:40:19;0.20;;;0.20;;
12916;SDS011;6526;54.312;13.092;2024-03-17T08:42:46;0.60;;;0.47;;
12916;SDS011;6526;54.312;13.092;2024-03-17T08:45:12;0.10;;;0.10;;
12916;SDS011;6526;54.312;13.092;2024-03-17T08:47:38;0.17;;;0.17;;
12916;SDS011;6526;54.312;13.092;2024-03-17T08:50:05;0.30;;;0.30;;
12916;SDS011;6526;54.312;13.092;2024-03-17T08:52:33;1.60;;;0.30;;
12916;SDS011;6526;54.312;13.092;2024-03-17T08:54:59;1.17;;;0.33;;
12916;SDS011;6526;54.312;13.092;2024-03-17T08:57:29;0.07;;;0.07;;
12916;SDS011;6526;54.312;13.092;2024-03-17T08:59:55;0.10;;;0.10;;
12916;SDS011;6526;54.312;13.092;2024-03-17T09:02:21;0.20;;;0.20;;
12916;SDS011;6526;54.312;13.092;2024-03-17T09:04:47;0.43;;;0.20;;
12916;SDS011;6526;54.312;13.092;2024-03-17T09:07:13;0.57;;;0.47;;
12916;SDS011;6526;54.312;13.092;2024-03-17T09:09:40;0.83;;;0.50;;
12916;SDS011;6526;54.312;13.092;2024-03-17T09:12:07;0.10;;;0.10;;
12916;SDS011;6526;54.312;13.092;2024-03-17T09:14:34;0.27;;;0.27;;
12916;SDS011;6526;54.312;13.092;2024-03-17T09:17:00;0.40;;;0.40;;
12916;SDS011;6526;54.312;13.092;2024-03-17T09:19:26;0.10;;;0.10;;
12916;SDS011;6526;54.312;13.092;2024-03-17T09:21:54;0.40;;;0.40;;
12916;SDS011;6526;54.312;13.092;2024-03-17T09:24:20;0.20;;;0.20;;
12916;SDS011;6526;54.312;13.092;2024-03-17T09:26:46;0.00;;;0.00;;
12916;SDS011;6526;54.312;13.092;2024-03-17T09:29:12;2.90;;;0.57;;
12916;SDS011;6526;54.312;13.092;2024-03-17T09:31:40;0.10;;;0.10;;
12916;SDS011;6526;54.312;13.092;2024-03-17T09:34:07;0.00;;;0.00;;
12916;SDS011;6526;54.312;13.092;2024-03-17T09:36:34;0.63;;;0.30;;
12916;SDS011;6526;54.312;13.092;2024-03-17T09:39:00;0.57;;;0.30;;
12916;SDS011;6526;54.312;13.092;2024-03-17T09:41:29;0.33;;;0.33;;
12916;SDS011;6526;54.312;13.092;2024-03-17T09:43:55;0.73;;;0.40;;
12916;SDS011;6526;54.312;13.092;2024-03-17T09:46:26;0.10;;;0.10;;
12916;SDS011;6526;54.312;13.092;2024-03-17T09:48:54;0.43;;;0.20;;
12916;SDS011;6526;54.312;13.092;2024-03-17T09:51:26;0.17;;;0.17;;
12916;SDS011;6526;54.312;13.092;2024-03-17T09:53:52;0.00;;;0.00;;
12916;SDS011;6526;54.312;13.092;2024-03-17T09:56:19;0.00;;;0.00;;
12916;SDS011;6526;54.312;13.092;2024-03-17T09:58:46;0.00;;;0.00;;
12916;SDS011;6526;54.312;13.092;2024-03-17T10:01:13;0.10;;;0.10;;
12916;SDS011;6526;54.312;13.092;2024-03-17T10:06:21;1.40;;;0.20;;
12916;SDS011;6526;54.312;13.092;2024-03-17T10:08:49;0.07;;;0.07;;
12916;SDS011;6526;54.312;13.092;2024-03-17T10:11:19;0.00;;;0.00;;
12916;SDS011;6526;54.312;13.092;2024-03-17T10:13:58;0.00;;;0.00;;
12916;SDS011;6526;54.312;13.092;2024-03-17T10:16:25;0.00;;;0.00;;
12916;SDS011;6526;54.312;13.092;2024-03-17T10:19:10;0.10;;;0.10;;
12916;SDS011;6526;54.312;13.092;2024-03-17T10:21:43;0.00;;;0.00;;
12916;SDS011;6526;54.312;13.092;2024-03-17T10:24:20;0.20;;;0.20;;
12916;SDS011;6526;54.312;13.092;2024-03-17T10:26:50;0.10;;;0.10;;
12916;SDS011;6526;54.312;13.092;2024-03-17T10:29:33;0.10;;;0.10;;
12916;SDS011;6526;54.312;13.092;2024-03-17T10:32:04;0.00;;;0.00;;
12916;SDS011;6526;54.312;13.092;2024-03-17T10:34:38;0.10;;;0.10;;
12916;SDS011;6526;54.312;13.092;2024-03-17T10:37:11;0.10;;;0.10;;
12916;SDS011;6526;54.312;13.092;2024-03-17T10:39:41;0.30;;;0.30;;
12916;SDS011;6526;54.312;13.092;2024-03-17T10:42:12;0.60;;;0.60;;
12916;SDS011;6526;54.312;13.092;2024-03-17T10:44:42;0.40;;;0.33;;
12916;SDS011;6526;54.312;13.092;2024-03-17T10:47:20;0.53;;;0.43;;
12916;SDS011;6526;54.312;13.092;2024-03-17T10:49:47;0.27;;;0.27;;
12916;SDS011;6526;54.312;13.092;2024-03-17T10:52:20;0.07;;;0.07;;
12916;SDS011;6526;54.312;13.092;2024-03-17T10:54:48;0.30;;;0.30;;
12916;SDS011;6526;54.312;13.092;2024-03-17T10:59:52;0.20;;;0.10;;
12916;SDS011;6526;54.312;13.092;2024-03-17T11:02:25;0.10;;;0.10;;
12916;SDS011;6526;54.312;13.092;2024-03-17T11:05:00;0.63;;;0.63;;
12916;SDS011;6526;54.312;13.092;2024-03-17T11:07:31;0.10;;;0.10;;
12916;SDS011;6526;54.312;13.092;2024-03-17T11:09:57;1.73;;;1.07;;
12916;SDS011;6526;54.312;13.092;2024-03-17T11:17:44;0.00;;;0.00;;
12916;SDS011;6526;54.312;13.092;2024-03-17T11:20:14;0.00;;;0.00;;
12916;SDS011;6526;54.312;13.092;2024-03-17T11:22:48;0.10;;;0.10;;
12916;SDS011;6526;54.312;13.092;2024-03-17T11:28:05;0.00;;;0.00;;
12916;SDS011;6526;54.312;13.092;2024-03-17T11:36:05;0.10;;;0.10;;
12916;SDS011;6526;54.312;13.092;2024-03-17T11:39:01;0.10;;;0.10;;
12916;SDS011;6526;54.312;13.092;2024-03-17T11:46:52;0.00;;;0.00;;
12916;SDS011;6526;54.312;13.092;2024-03-17T11:49:26;0.20;;;0.20;;
12916;SDS011;6526;54.312;13.092;2024-03-17T11:54:39;0.40;;;0.40;;
12916;SDS011;6526;54.312;13.092;2024-03-17T11:57:06;0.10;;;0.10;;
12916;SDS011;6526;54.312;13.092;2024-03-17T11:59:35;0.10;;;0.10;;
12916;SDS011;6526;54.312;13.092;2024-03-17T12:02:02;0.10;;;0.10;;
12916;SDS011;6526;54.312;13.092;2024-03-17T12:04:41;0.20;;;0.17;;
12916;SDS011;6526;54.312;13.092;2024-03-17T12:07:11;0.03;;;0.03;;
12916;SDS011;6526;54.312;13.092;2024-03-17T12:09:39;0.30;;;0.30;;
12916;SDS011;6526;54.312;13.092;2024-03-17T12:12:22;0.70;;;0.40;;
12916;SDS011;6526;54.312;13.092;2024-03-17T12:14:51;0.10;;;0.10;;
12916;SDS011;6526;54.312;13.092;2024-03-17T12:17:20;0.10;;;0.10;;
12916;SDS011;6526;54.312;13.092;2024-03-17T12:19:47;0.10;;;0.10;;
12916;SDS011;6526;54.312;13.092;2024-03-17T12:22:15;0.10;;;0.10;;
12916;SDS011;6526;54.312;13.092;2024-03-17T12:24:49;0.93;;;0.60;;
12916;SDS011;6526;54.312;13.092;2024-03-17T12:27:20;0.20;;;0.20;;
12916;SDS011;6526;54.312;13.092;2024-03-17T12:29:48;0.17;;;0.13;;
12916;SDS011;6526;54.312;13.092;2024-03-17T12:32:15;0.10;;;0.10;;
12916;SDS011;6526;54.312;13.092;2024-03-17T12:34:50;1.37;;;0.60;;
12916;SDS011;6526;54.312;13.092;2024-03-17T12:37:26;0.10;;;0.10;;
12916;SDS011;6526;54.312;13.092;2024-03-17T12:40:01;0.20;;;0.20;;
12916;SDS011;6526;54.312;13.092;2024-03-17T12:42:28;0.73;;;0.40;;
12916;SDS011;6526;54.312;13.092;2024-03-17T12:45:01;0.00;;;0.00;;
12916;SDS011;6526;54.312;13.092;2024-03-17T12:47:30;0.00;;;0.00;;
12916;SDS011;6526;54.312;13.092;2024-03-17T12:49:57;0.27;;;0.27;;
12916;SDS011;6526;54.312;13.092;2024-03-17T12:52:24;5.10;;;0.40;;
12916;SDS011;6526;54.312;13.092;2024-03-17T12:57:45;0.17;;;0.17;;
12916;SDS011;6526;54.312;13.092;2024-03-17T13:00:30;0.50;;;0.50;;
12916;SDS011;6526;54.312;13.092;2024-03-17T13:02:57;0.03;;;0.03;;
12916;SDS011;6526;54.312;13.092;2024-03-17T13:05:24;0.00;;;0.00;;
12916;SDS011;6526;54.312;13.092;2024-03-17T13:07:50;0.27;;;0.27;;
12916;SDS011;6526;54.312;13.092;2024-03-17T13:10:19;0.33;;;0.27;;
12916;SDS011;6526;54.312;13.092;2024-03-17T13:12:46;0.20;;;0.20;;
12916;SDS011;6526;54.312;13.092;2024-03-17T13:15:14;0.20;;;0.10;;
12916;SDS011;6526;54.312;13.092;2024-03-17T13:17:43;0.00;;;0.00;;
12916;SDS011;6526;54.312;13.092;2024-03-17T13:20:15;0.10;;;0.10;;
12916;SDS011;6526;54.312;13.092;2024-03-17T13:22:45;0.10;;;0.10;;
12916;SDS011;6526;54.312;13.092;2024-03-17T13:25:13;0.00;;;0.00;;
12916;SDS011;6526;54.312;13.092;2024-03-17T13:27:44;0.20;;;0.20;;
12916;SDS011;6526;54.312;13.092;2024-03-17T13:30:11;0.10;;;0.10;;
12916;SDS011;6526;54.312;13.092;2024-03-17T13:32:38;0.17;;;0.17;;
12916;SDS011;6526;54.312;13.092;2024-03-17T13:35:05;0.10;;;0.10;;
12916;SDS011;6526;54.312;13.092;2024-03-17T13:37:33;0.60;;;0.33;;
12916;SDS011;6526;54.312;13.092;2024-03-17T13:40:00;0.10;;;0.10;;
12916;SDS011;6526;54.312;13.092;2024-03-17T13:42:29;0.33;;;0.30;;
12916;SDS011;6526;54.312;13.092;2024-03-17T13:44:55;0.20;;;0.20;;
12916;SDS011;6526;54.312;13.092;2024-03-17T13:47:21;0.23;;;0.23;;
12916;SDS011;6526;54.312;13.092;2024-03-17T13:49:47;0.23;;;0.20;;
12916;SDS011;6526;54.312;13.092;2024-03-17T13:52:13;0.10;;;0.10;;
12916;SDS011;6526;54.312;13.092;2024-03-17T13:54:39;0.17;;;0.10;;
12916;SDS011;6526;54.312;13.092;2024-03-17T13:57:05;0.30;;;0.30;;
12916;SDS011;6526;54.312;13.092;2024-03-17T13:59:32;0.00;;;0.00;;
12916;SDS011;6526;54.312;13.092;2024-03-17T14:01:59;0.20;;;0.20;;
12916;SDS011;6526;54.312;13.092;2024-03-17T14:04:25;0.00;;;0.00;;
12916;SDS011;6526;54.312;13.092;2024-03-17T14:06:51;0.93;;;0.10;;
12916;SDS011;6526;54.312;13.092;2024-03-17T14:09:17;0.30;;;0.20;;
12916;SDS011;6526;54.312;13.092;2024-03-17T14:11:43;1.60;;;0.20;;
12916;SDS011;6526;54.312;13.092;2024-03-17T14:14:10;0.10;;;0.10;;
12916;SDS011;6526;54.312;13.092;2024-03-17T14:16:37;0.60;;;0.50;;
12916;SDS011;6526;54.312;13.092;2024-03-17T14:19:05;0.40;;;0.37;;
12916;SDS011;6526;54.312;13.092;2024-03-17T14:21:31;0.20;;;0.20;;
12916;SDS011;6526;54.312;13.092;2024-03-17T14:23:57;0.30;;;0.30;;
12916;SDS011;6526;54.312;13.092;2024-03-17T14:26:24;0.30;;;0.30;;
12916;SDS011;6526;54.312;13.092;2024-03-17T14:28:50;0.93;;;0.63;;
12916;SDS011;6526;54.312;13.092;2024-03-17T14:31:19;0.17;;;0.17;;
12916;SDS011;6526;54.312;13.092;2024-03-17T14:33:45;0.73;;;0.20;;
12916;SDS011;6526;54.312;13.092;2024-03-17T14:36:11;0.10;;;0.10;;
12916;SDS011;6526;54.312;13.092;2024-03-17T14:38:37;0.10;;;0.10;;
12916;SDS011;6526;54.312;13.092;2024-03-17T14:41:03;0.07;;;0.07;;
12916;SDS011;6526;54.312;13.092;2024-03-17T14:43:29;0.03;;;0.03;;
12916;SDS011;6526;54.312;13.092;2024-03-17T14:45:55;0.30;;;0.10;;
12916;SDS011;6526;54.312;13.092;2024-03-17T14:48:22;2.63;;;0.47;;
12916;SDS011;6526;54.312;13.092;2024-03-17T14:50:48;0.33;;;0.30;;
12916;SDS011;6526;54.312;13.092;2024-03-17T14:53:14;0.00;;;0.00;;
12916;SDS011;6526;54.312;13.092;2024-03-17T14:55:42;0.23;;;0.23;;
12916;SDS011;6526;54.312;13.092;2024-03-17T14:58:08;4.80;;;1.50;;
12916;SDS011;6526;54.312;13.092;2024-03-17T15:00:35;0.10;;;0.10;;
12916;SDS011;6526;54.312;13.092;2024-03-17T15:03:01;0.30;;;0.30;;
12916;SDS011;6526;54.312;13.092;2024-03-17T15:05:27;0.70;;;0.60;;
12916;SDS011;6526;54.312;13.092;2024-03-17T15:07:53;0.00;;;0.00;;
12916;SDS011;6526;54.312;13.092;2024-03-17T15:10:19;0.20;;;0.20;;
12916;SDS011;6526;54.312;13.092;2024-03-17T15:12:48;0.30;;;0.30;;
12916;SDS011;6526;54.312;13.092;2024-03-17T15:15:15;0.83;;;0.40;;
12916;SDS011;6526;54.312;13.092;2024-03-17T15:17:41;0.00;;;0.00;;
12916;SDS011;6526;54.312;13.092;2024-03-17T15:20:09;0.17;;;0.17;;
12916;SDS011;6526;54.312;13.092;2024-03-17T15:22:45;0.60;;;0.20;;
12916;SDS011;6526;54.312;13.092;2024-03-17T15:25:12;0.10;;;0.10;;
12916;SDS011;6526;54.312;13.092;2024-03-17T15:27:44;0.20;;;0.20;;